Time;durP1;ratioP1;P1;durP2;ratioP2;P2;SDS_P1;SDS_P2;PMS_P1;PMS_P2;Temp;Humidity;BMP_temperature;BMP_pressure;BME280_temperature;BME280_humidity;BME280_pressure;Samples;Min_cycle;Max_cycle;Signal;HPM_P1;HPM_P2
2023/02/21 02:15:11;;;;;;;15.48;8.63;;;;;;;;;;5010153;28;20119;-64
2023/02/21 02:17:44;;;;;;;14.32;7.82;;;;;;;;;;5008790;28;20053;-64
2023/02/21 02:20:37;;;;;;;16.98;8.70;;;;;;;;;;5009970;28;20041;-62
2023/02/21 02:23:30;;;;;;;22.33;11.15;;;;;;;;;;5005467;28;20033;-64
2023/02/21 02:26:12;;;;;;;16.55;9.95;;;;;;;;;;5030527;28;20060;-63
2023/02/21 02:29:02;;;;;;;18.50;9.23;;;;;;;;;;5027983;28;20126;-65
2023/02/21 02:31:47;;;;;;;17.48;9.15;;;;;;;;;;4991795;28;20045;-63
2023/02/21 02:34:26;;;;;;;18.52;9.23;;;;;;;;;;5024105;28;20465;-64
2023/02/21 02:36:53;;;;;;;16.23;8.95;;;;;;;;;;5028149;28;20107;-64
2023/02/21 02:39:31;;;;;;;14.98;9.05;;;;;;;;;;5028347;28;20150;-64
2023/02/21 02:42:01;;;;;;;15.68;8.88;;;;;;;;;;5031004;28;20042;-64
2023/02/21 02:44:53;;;;;;;16.95;8.38;;;;;;;;;;5009561;28;20609;-63
2023/02/21 02:47:25;;;;;;;18.08;9.68;;;;;;;;;;5025762;28;20148;-62
2023/02/21 02:50:12;;;;;;;15.43;8.85;;;;;;;;;;5016386;28;20376;-64
2023/02/21 02:52:49;;;;;;;18.92;10.15;;;;;;;;;;5015435;28;20128;-63
2023/02/21 02:55:25;;;;;;;21.98;10.27;;;;;;;;;;5015209;28;20038;-64
2023/02/21 02:57:52;;;;;;;20.13;9.48;;;;;;;;;;5015307;28;20098;-63
2023/02/21 03:00:19;;;;;;;16.95;9.75;;;;;;;;;;5016542;28;21888;-64
2023/02/21 03:02:52;;;;;;;17.65;11.02;;;;;;;;;;4994042;28;20570;-71
2023/02/21 03:05:37;;;;;;;17.10;9.73;;;;;;;;;;4994058;28;20087;-65
2023/02/21 03:08:10;;;;;;;20.73;11.18;;;;;;;;;;5016118;28;20073;-67
2023/02/21 03:10:40;;;;;;;23.97;10.77;;;;;;;;;;5016144;28;20495;-64
2023/02/21 03:13:45;;;;;;;16.95;9.88;;;;;;;;;;5010921;28;20370;-63
2023/02/21 03:16:19;;;;;;;22.13;12.13;;;;;;;;;;5009654;28;20129;-62
2023/02/21 03:19:07;;;;;;;22.60;12.10;;;;;;;;;;5006063;28;20037;-64
2023/02/21 03:21:44;;;;;;;20.60;11.88;;;;;;;;;;5021171;28;20114;-62
2023/02/21 03:24:13;;;;;;;23.13;11.50;;;;;;;;;;5029136;28;20049;-64
2023/02/21 03:26:42;;;;;;;24.58;12.27;;;;;;;;;;5026294;28;20034;-64
2023/02/21 03:29:09;;;;;;;20.30;11.30;;;;;;;;;;5028887;28;20142;-64
2023/02/21 03:31:47;;;;;;;18.90;11.52;;;;;;;;;;5024905;28;20051;-61
2023/02/21 03:34:14;;;;;;;20.83;11.88;;;;;;;;;;5027251;28;20059;-61
2023/02/21 03:36:41;;;;;;;20.38;10.38;;;;;;;;;;5025689;28;20049;-63
2023/02/21 03:39:08;;;;;;;20.92;10.27;;;;;;;;;;5026702;28;20054;-66
2023/02/21 03:41:35;;;;;;;23.13;13.15;;;;;;;;;;5026401;28;20025;-61
2023/02/21 03:44:01;;;;;;;19.98;9.98;;;;;;;;;;5027291;28;20393;-62
2023/02/21 03:46:28;;;;;;;16.65;10.57;;;;;;;;;;5017993;28;20147;-62
2023/02/21 03:48:54;;;;;;;19.50;10.65;;;;;;;;;;5009878;28;20057;-61
2023/02/21 03:51:22;;;;;;;22.50;11.20;;;;;;;;;;5007751;28;20046;-62
2023/02/21 03:53:48;;;;;;;22.92;10.60;;;;;;;;;;5008417;28;20060;-62
2023/02/21 03:56:15;;;;;;;17.00;10.80;;;;;;;;;;5008279;28;20054;-60
2023/02/21 03:58:42;;;;;;;18.52;10.10;;;;;;;;;;5005548;28;20115;-60
2023/02/21 04:01:08;;;;;;;20.77;11.63;;;;;;;;;;5007465;28;20099;-62
2023/02/21 04:03:35;;;;;;;18.13;10.50;;;;;;;;;;5007020;28;20944;-60
2023/02/21 04:06:02;;;;;;;25.95;11.68;;;;;;;;;;5009156;28;20060;-61
2023/02/21 04:08:29;;;;;;;19.52;10.70;;;;;;;;;;5015722;28;20077;-59
2023/02/21 04:10:56;;;;;;;22.02;10.88;;;;;;;;;;5015019;28;20522;-59
2023/02/21 04:13:23;;;;;;;22.13;12.63;;;;;;;;;;5008709;28;20087;-59
2023/02/21 04:15:49;;;;;;;19.73;11.75;;;;;;;;;;5007685;28;20038;-59
2023/02/21 04:18:16;;;;;;;20.48;11.20;;;;;;;;;;5006256;28;20058;-58
2023/02/21 04:20:45;;;;;;;15.88;9.65;;;;;;;;;;5009742;28;20052;-59
2023/02/21 04:23:12;;;;;;;15.07;9.30;;;;;;;;;;5009296;28;20053;-60
2023/02/21 04:25:39;;;;;;;17.00;9.80;;;;;;;;;;5005934;28;20053;-61
2023/02/21 04:28:06;;;;;;;15.85;8.07;;;;;;;;;;5006951;28;20088;-59
2023/02/21 04:30:32;;;;;;;17.33;9.27;;;;;;;;;;5008087;28;20139;-60
2023/02/21 04:32:59;;;;;;;20.30;10.80;;;;;;;;;;5008550;28;20052;-57
2023/02/21 04:35:25;;;;;;;13.77;7.55;;;;;;;;;;5007471;28;20121;-61
2023/02/21 04:37:52;;;;;;;9.85;5.53;;;;;;;;;;5008566;28;20816;-59
2023/02/21 04:40:19;;;;;;;13.60;5.93;;;;;;;;;;5008270;28;20048;-59
2023/02/21 04:42:45;;;;;;;17.45;7.47;;;;;;;;;;5010026;28;20121;-59
2023/02/21 04:45:12;;;;;;;14.35;6.55;;;;;;;;;;5010460;28;20061;-60
2023/02/21 04:47:39;;;;;;;9.88;5.78;;;;;;;;;;5010806;28;20115;-61
2023/02/21 04:50:06;;;;;;;9.98;5.32;;;;;;;;;;5011218;28;20054;-61
2023/02/21 04:52:32;;;;;;;8.35;3.90;;;;;;;;;;5011961;28;20033;-61
2023/02/21 04:54:59;;;;;;;11.93;6.25;;;;;;;;;;5009360;28;20045;-61
2023/02/21 04:57:26;;;;;;;8.18;4.38;;;;;;;;;;5005830;28;20084;-61
2023/02/21 04:59:59;;;;;;;18.70;6.13;;;;;;;;;;5008045;28;20109;-60
2023/02/21 05:02:26;;;;;;;10.35;5.07;;;;;;;;;;5007304;28;20053;-61
2023/02/21 05:04:53;;;;;;;7.03;4.05;;;;;;;;;;4991134;28;20033;-60
2023/02/21 05:07:20;;;;;;;15.38;5.45;;;;;;;;;;5005539;28;20125;-60
2023/02/21 05:09:46;;;;;;;6.47;3.67;;;;;;;;;;5007839;28;20092;-59
2023/02/21 05:12:13;;;;;;;5.80;2.85;;;;;;;;;;5007002;28;21819;-62
2023/02/21 05:14:40;;;;;;;9.57;3.67;;;;;;;;;;5007715;28;20137;-62
2023/02/21 05:17:07;;;;;;;4.18;2.25;;;;;;;;;;5006976;28;20041;-59
2023/02/21 05:19:34;;;;;;;7.28;3.28;;;;;;;;;;5006746;28;20048;-61
2023/02/21 05:22:02;;;;;;;3.30;1.83;;;;;;;;;;5006580;28;20495;-62
2023/02/21 05:24:30;;;;;;;4.82;2.47;;;;;;;;;;5006002;28;20597;-61
2023/02/21 05:26:57;;;;;;;5.57;2.15;;;;;;;;;;5008360;28;20111;-61
2023/02/21 05:29:24;;;;;;;8.18;3.25;;;;;;;;;;5004726;28;20042;-59
2023/02/21 05:31:50;;;;;;;5.65;2.40;;;;;;;;;;5006967;28;20046;-59
2023/02/21 05:34:18;;;;;;;1.15;0.85;;;;;;;;;;5007062;28;20042;-60
2023/02/21 05:36:45;;;;;;;8.25;2.78;;;;;;;;;;5021058;28;20256;-59
2023/02/21 05:39:11;;;;;;;6.68;3.42;;;;;;;;;;5012695;28;20045;-60
2023/02/21 05:41:38;;;;;;;7.18;2.67;;;;;;;;;;5007533;28;20041;-60
2023/02/21 05:44:05;;;;;;;6.18;2.47;;;;;;;;;;5006498;28;20094;-58
2023/02/21 05:46:33;;;;;;;7.30;3.50;;;;;;;;;;5004685;28;20038;-60
2023/02/21 05:49:01;;;;;;;4.03;1.88;;;;;;;;;;5005864;28;20045;-59
2023/02/21 05:51:28;;;;;;;5.82;2.58;;;;;;;;;;5004802;28;20099;-59
2023/02/21 05:53:55;;;;;;;6.43;2.58;;;;;;;;;;5006588;28;20050;-61
2023/02/21 05:56:22;;;;;;;6.00;3.03;;;;;;;;;;5006050;28;20095;-60
2023/02/21 05:58:48;;;;;;;4.70;1.75;;;;;;;;;;5005833;28;20046;-60
2023/02/21 06:01:15;;;;;;;6.75;3.45;;;;;;;;;;5006880;28;20038;-59
2023/02/21 06:03:42;;;;;;;5.90;2.83;;;;;;;;;;5004952;28;20582;-58
2023/02/21 06:06:09;;;;;;;7.32;2.55;;;;;;;;;;5005861;28;20452;-60
2023/02/21 06:08:42;;;;;;;4.13;2.03;;;;;;;;;;5004568;28;20646;-59
2023/02/21 06:11:09;;;;;;;;;;;;;;;;;;5005586;28;20045;-58
2023/02/21 06:13:35;;;;;;;4.57;2.22;;;;;;;;;;5009698;28;20286;-59
2023/02/21 06:16:02;;;;;;;7.28;2.97;;;;;;;;;;5009840;28;20048;-59
2023/02/21 06:18:29;;;;;;;1.98;0.77;;;;;;;;;;5006954;28;20048;-58
2023/02/21 06:20:55;;;;;;;7.22;2.80;;;;;;;;;;5010069;28;20044;-59
2023/02/21 06:23:22;;;;;;;4.95;2.53;;;;;;;;;;5009603;28;20042;-57
2023/02/21 06:25:48;;;;;;;7.63;2.92;;;;;;;;;;5008665;28;20052;-60
2023/02/21 06:28:15;;;;;;;3.20;1.63;;;;;;;;;;5007471;28;20892;-60
2023/02/21 06:30:42;;;;;;;7.53;3.65;;;;;;;;;;5008290;28;20081;-61
2023/02/21 06:33:08;;;;;;;7.18;2.72;;;;;;;;;;5007852;28;20403;-60
2023/02/21 06:35:35;;;;;;;3.58;1.60;;;;;;;;;;5007623;28;20037;-60
2023/02/21 06:38:02;;;;;;;2.05;1.10;;;;;;;;;;5008677;28;20096;-59
2023/02/21 06:40:28;;;;;;;8.35;2.72;;;;;;;;;;5007456;28;20120;-61
2023/02/21 06:42:55;;;;;;;6.40;3.00;;;;;;;;;;5008889;28;20360;-60
2023/02/21 06:45:22;;;;;;;6.00;2.67;;;;;;;;;;5008309;28;20034;-60
2023/02/21 06:47:48;;;;;;;8.38;2.60;;;;;;;;;;5009107;28;20046;-59
2023/02/21 06:50:15;;;;;;;3.05;1.30;;;;;;;;;;5007953;28;20113;-60
2023/02/21 06:52:42;;;;;;;4.40;2.15;;;;;;;;;;5007331;28;20752;-61
2023/02/21 06:55:08;;;;;;;3.47;1.60;;;;;;;;;;5008582;28;20502;-60
2023/02/21 06:57:35;;;;;;;6.65;1.65;;;;;;;;;;5009433;28;20430;-61
2023/02/21 07:00:02;;;;;;;1.65;1.25;;;;;;;;;;5009213;28;20517;-60
2023/02/21 07:02:29;;;;;;;4.15;1.67;;;;;;;;;;5009733;28;20056;-60
2023/02/21 07:04:55;;;;;;;4.72;1.70;;;;;;;;;;5008462;28;20125;-59
2023/02/21 07:07:22;;;;;;;8.15;2.95;;;;;;;;;;5008145;28;21914;-60
2023/02/21 07:09:49;;;;;;;2.97;1.42;;;;;;;;;;5008901;28;20049;-59
2023/02/21 07:12:15;;;;;;;3.92;1.92;;;;;;;;;;5008358;28;20029;-59
2023/02/21 07:14:42;;;;;;;2.85;1.13;;;;;;;;;;4992449;28;20049;-60
2023/02/21 07:17:08;;;;;;;4.45;1.73;;;;;;;;;;5008256;28;20041;-60
2023/02/21 07:19:35;;;;;;;4.47;1.63;;;;;;;;;;5006929;28;20045;-59
2023/02/21 07:22:02;;;;;;;3.33;1.40;;;;;;;;;;5008257;28;20041;-61
2023/02/21 07:24:28;;;;;;;3.97;1.85;;;;;;;;;;5007063;28;20037;-58
2023/02/21 07:26:55;;;;;;;4.50;1.90;;;;;;;;;;5006907;28;20068;-61
2023/02/21 07:29:22;;;;;;;5.18;2.50;;;;;;;;;;5015490;28;20578;-60
2023/02/21 07:31:48;;;;;;;15.20;3.38;;;;;;;;;;5017530;28;20053;-60
2023/02/21 07:34:15;;;;;;;7.10;2.15;;;;;;;;;;5009160;28;20042;-61
2023/02/21 07:36:42;;;;;;;2.63;1.20;;;;;;;;;;5007377;28;20625;-61
2023/02/21 07:39:08;;;;;;;6.30;2.88;;;;;;;;;;5017563;28;20041;-61
2023/02/21 07:41:35;;;;;;;3.80;1.63;;;;;;;;;;5012046;28;20041;-59
2023/02/21 07:44:02;;;;;;;5.80;2.53;;;;;;;;;;5009457;28;20046;-60
2023/02/21 07:46:29;;;;;;;7.07;2.92;;;;;;;;;;5008002;28;20097;-61
2023/02/21 07:48:56;;;;;;;4.15;2.00;;;;;;;;;;5009513;28;20129;-60
2023/02/21 07:51:23;;;;;;;6.28;2.78;;;;;;;;;;5007533;28;20045;-61
2023/02/21 07:53:49;;;;;;;6.95;2.53;;;;;;;;;;5008361;28;20072;-60
2023/02/21 07:56:16;;;;;;;3.13;1.23;;;;;;;;;;5010555;28;20055;-60
2023/02/21 07:58:42;;;;;;;4.53;1.95;;;;;;;;;;5008464;28;20542;-59
2023/02/21 08:01:09;;;;;;;6.30;2.78;;;;;;;;;;5007039;28;20037;-60
2023/02/21 08:03:36;;;;;;;4.00;1.75;;;;;;;;;;5008114;28;20045;-60
2023/02/21 08:06:03;;;;;;;5.65;1.98;;;;;;;;;;5007761;28;20037;-60
2023/02/21 08:08:30;;;;;;;4.35;1.83;;;;;;;;;;5008506;28;20050;-61
2023/02/21 08:10:57;;;;;;;5.82;1.90;;;;;;;;;;5010228;28;20045;-61
2023/02/21 08:13:23;;;;;;;6.50;1.90;;;;;;;;;;5007794;28;20053;-59
2023/02/21 08:15:50;;;;;;;3.63;1.15;;;;;;;;;;5008394;28;20045;-59
2023/02/21 08:18:23;;;;;;;3.60;1.42;;;;;;;;;;5006983;28;20057;-60
2023/02/21 08:20:53;;;;;;;5.35;1.58;;;;;;;;;;5007766;28;20045;-61
2023/02/21 08:23:20;;;;;;;4.40;1.73;;;;;;;;;;5006999;28;20490;-63
2023/02/21 08:25:47;;;;;;;3.28;1.48;;;;;;;;;;5008676;28;20155;-60
2023/02/21 08:28:14;;;;;;;4.22;1.70;;;;;;;;;;5005972;28;20061;-60
2023/02/21 08:30:41;;;;;;;5.78;1.92;;;;;;;;;;5007949;28;20069;-61
2023/02/21 08:33:07;;;;;;;1.88;0.80;;;;;;;;;;5009907;28;20397;-61
2023/02/21 08:35:34;;;;;;;3.42;1.50;;;;;;;;;;5006267;28;20038;-60
2023/02/21 08:38:04;;;;;;;2.40;1.00;;;;;;;;;;5006557;28;20057;-61
2023/02/21 08:40:31;;;;;;;3.55;1.50;;;;;;;;;;5005506;28;20065;-61
2023/02/21 08:42:58;;;;;;;4.68;2.00;;;;;;;;;;5007035;28;20061;-61
2023/02/21 08:45:25;;;;;;;4.45;1.60;;;;;;;;;;5005687;28;20054;-60
2023/02/21 08:47:52;;;;;;;3.50;1.48;;;;;;;;;;5005486;28;20045;-61
2023/02/21 08:50:20;;;;;;;0.25;0.22;;;;;;;;;;5006278;28;20434;-62
2023/02/21 08:52:47;;;;;;;2.42;0.85;;;;;;;;;;5016943;28;20041;-61
2023/02/21 08:55:14;;;;;;;2.90;1.15;;;;;;;;;;5010253;28;20037;-62
2023/02/21 08:57:41;;;;;;;4.25;1.63;;;;;;;;;;5004745;28;20462;-62
2023/02/21 09:00:09;;;;;;;2.47;0.95;;;;;;;;;;5007422;28;20076;-62
2023/02/21 09:02:39;;;;;;;2.90;1.23;;;;;;;;;;5005225;28;20038;-61
2023/02/21 09:05:08;;;;;;;2.83;1.02;;;;;;;;;;5007358;28;20106;-62
2023/02/21 09:07:34;;;;;;;0.40;0.40;;;;;;;;;;5006365;28;20049;-60
2023/02/21 09:10:01;;;;;;;3.28;1.10;;;;;;;;;;5006766;28;20034;-60
2023/02/21 09:12:28;;;;;;;5.25;1.38;;;;;;;;;;5006455;28;20077;-61
2023/02/21 09:14:54;;;;;;;0.55;0.35;;;;;;;;;;5006144;28;20125;-60
2023/02/21 09:17:21;;;;;;;0.50;0.50;;;;;;;;;;5006321;28;20532;-61
2023/02/21 09:19:48;;;;;;;0.28;0.25;;;;;;;;;;5007869;28;20042;-59
2023/02/21 09:22:16;;;;;;;0.32;0.32;;;;;;;;;;5008159;28;20057;-61
2023/02/21 09:24:43;;;;;;;1.13;0.43;;;;;;;;;;5007462;28;20116;-61
2023/02/21 09:27:09;;;;;;;2.47;0.85;;;;;;;;;;5006927;28;20046;-61
2023/02/21 09:29:36;;;;;;;0.45;0.30;;;;;;;;;;5006791;28;20040;-63
2023/02/21 09:32:04;;;;;;;5.05;0.75;;;;;;;;;;5007146;28;20125;-62
2023/02/21 09:34:30;;;;;;;2.38;0.50;;;;;;;;;;5004786;28;20053;-62
2023/02/21 09:36:58;;;;;;;1.38;0.55;;;;;;;;;;5005715;28;20372;-61
2023/02/21 09:39:25;;;;;;;3.08;0.80;;;;;;;;;;5005923;28;20091;-61
2023/02/21 09:41:54;;;;;;;0.93;0.45;;;;;;;;;;5005771;28;20041;-62
2023/02/21 09:44:22;;;;;;;3.97;1.10;;;;;;;;;;5005961;28;20394;-59
2023/02/21 09:47:00;;;;;;;4.65;1.13;;;;;;;;;;5008320;28;20050;-60
2023/02/21 09:49:38;;;;;;;0.40;0.30;;;;;;;;;;5008855;28;20057;-61
2023/02/21 09:52:05;;;;;;;2.17;0.73;;;;;;;;;;5009469;28;20053;-58
2023/02/21 09:54:32;;;;;;;0.25;0.25;;;;;;;;;;5009263;28;20209;-60
2023/02/21 09:57:01;;;;;;;0.20;0.20;;;;;;;;;;5008220;28;20836;-59
2023/02/21 09:59:28;;;;;;;0.63;0.43;;;;;;;;;;5008528;28;20054;-63
2023/02/21 10:02:13;;;;;;;0.40;0.30;;;;;;;;;;5009192;28;20041;-59
2023/02/21 10:04:40;;;;;;;2.92;0.93;;;;;;;;;;5008678;28;20045;-60
2023/02/21 10:07:13;;;;;;;0.75;0.52;;;;;;;;;;5010141;28;20041;-60
2023/02/21 10:09:45;;;;;;;1.33;0.82;;;;;;;;;;5010091;28;20049;-61
2023/02/21 10:12:27;;;;;;;0.20;0.20;;;;;;;;;;5009344;28;21199;-58
2023/02/21 10:15:09;;;;;;;2.83;1.08;;;;;;;;;;5021028;28;20041;-62
2023/02/21 10:17:45;;;;;;;0.20;0.20;;;;;;;;;;5010562;28;20058;-60
2023/02/21 10:20:21;;;;;;;1.85;0.65;;;;;;;;;;5008978;28;20064;-62
2023/02/21 10:22:48;;;;;;;0.60;0.60;;;;;;;;;;5021152;28;20053;-61
2023/02/21 10:25:35;;;;;;;3.92;1.13;;;;;;;;;;5012709;28;20045;-62
2023/02/21 10:28:02;;;;;;;1.17;0.43;;;;;;;;;;5006631;28;20080;-63
2023/02/21 10:30:39;;;;;;;0.20;0.20;;;;;;;;;;5007636;28;20041;-63
2023/02/21 10:33:06;;;;;;;0.65;0.40;;;;;;;;;;5008121;28;20084;-61
2023/02/21 10:35:34;;;;;;;2.53;1.08;;;;;;;;;;5007289;28;21341;-62
2023/02/21 10:38:01;;;;;;;0.55;0.30;;;;;;;;;;5008123;28;20052;-61
2023/02/21 10:40:31;;;;;;;0.68;0.45;;;;;;;;;;5008254;28;20053;-62
2023/02/21 10:43:19;;;;;;;0.38;0.30;;;;;;;;;;5016457;28;20048;-61
2023/02/21 10:45:53;;;;;;;0.28;0.20;;;;;;;;;;5011631;28;20110;-61
2023/02/21 10:48:21;;;;;;;1.23;0.50;;;;;;;;;;5010272;28;20071;-62
2023/02/21 10:51:03;;;;;;;2.75;1.05;;;;;;;;;;5007978;28;20033;-62
2023/02/21 10:53:31;;;;;;;0.43;0.30;;;;;;;;;;5007660;28;20038;-61
2023/02/21 10:56:19;;;;;;;1.00;0.50;;;;;;;;;;5007160;28;20049;-61
2023/02/21 10:59:06;;;;;;;2.17;0.75;;;;;;;;;;5018047;28;20069;-62
2023/02/21 11:01:35;;;;;;;1.10;0.52;;;;;;;;;;4990342;28;20084;-61
2023/02/21 11:04:02;;;;;;;0.20;0.20;;;;;;;;;;5007549;28;20157;-61
2023/02/21 11:06:32;;;;;;;0.65;0.40;;;;;;;;;;5006816;28;20046;-62
2023/02/21 11:08:59;;;;;;;1.40;0.45;;;;;;;;;;5007595;28;20033;-61
2023/02/21 11:11:32;;;;;;;0.52;0.30;;;;;;;;;;5008496;28;21747;-62
2023/02/21 11:14:19;;;;;;;0.32;0.20;;;;;;;;;;5007909;28;20151;-61
2023/02/21 11:17:03;;;;;;;1.52;0.65;;;;;;;;;;5006677;28;20460;-61
2023/02/21 11:19:41;;;;;;;1.08;0.50;;;;;;;;;;5006705;28;20044;-62
2023/02/21 11:22:08;;;;;;;0.55;0.30;;;;;;;;;;5007595;28;20758;-62
2023/02/21 11:24:44;;;;;;;1.88;0.95;;;;;;;;;;5007065;28;20046;-62
2023/02/21 11:27:12;;;;;;;0.20;0.20;;;;;;;;;;5007915;28;20049;-62
2023/02/21 11:29:41;;;;;;;3.53;0.60;;;;;;;;;;5007164;28;20096;-61
2023/02/21 11:32:13;;;;;;;0.63;0.57;;;;;;;;;;5007594;28;20092;-62
2023/02/21 11:34:47;;;;;;;2.45;0.93;;;;;;;;;;5007810;28;20576;-63
2023/02/21 11:37:14;;;;;;;3.08;1.08;;;;;;;;;;5006806;28;20060;-62
2023/02/21 11:39:41;;;;;;;2.40;1.05;;;;;;;;;;5005310;28;20054;-62
2023/02/21 11:42:31;;;;;;;0.20;0.20;;;;;;;;;;5007506;28;20092;-62
2023/02/21 11:45:10;;;;;;;0.40;0.40;;;;;;;;;;4996276;28;20045;-62
2023/02/21 11:47:43;;;;;;;0.20;0.20;;;;;;;;;;5005018;28;20694;-62
2023/02/21 11:50:16;;;;;;;0.20;0.20;;;;;;;;;;5007060;28;20561;-63
2023/02/21 11:52:46;;;;;;;0.55;0.35;;;;;;;;;;5006125;28;20104;-63
2023/02/21 11:55:14;;;;;;;0.22;0.20;;;;;;;;;;5007073;28;20879;-62
2023/02/21 11:57:50;;;;;;;0.20;0.20;;;;;;;;;;5005049;28;20069;-63
2023/02/21 12:00:35;;;;;;;0.65;0.40;;;;;;;;;;5007297;28;20049;-62
2023/02/21 12:03:10;;;;;;;0.98;0.60;;;;;;;;;;5006420;28;20046;-62
2023/02/21 12:05:42;;;;;;;2.65;1.27;;;;;;;;;;5007785;28;20049;-62
2023/02/21 12:08:21;;;;;;;0.40;0.40;;;;;;;;;;5005505;28;20069;-63
2023/02/21 12:10:53;;;;;;;0.75;0.35;;;;;;;;;;5005350;28;20057;-61
2023/02/21 12:13:38;;;;;;;1.05;0.43;;;;;;;;;;5006489;28;20049;-63
2023/02/21 12:16:07;;;;;;;1.38;0.65;;;;;;;;;;5005565;28;20157;-63
2023/02/21 12:18:55;;;;;;;3.53;1.13;;;;;;;;;;5005414;28;20553;-63
2023/02/21 12:21:35;;;;;;;2.63;1.05;;;;;;;;;;5005755;28;20041;-63
2023/02/21 12:24:05;;;;;;;2.28;0.77;;;;;;;;;;5006947;28;20038;-62
2023/02/21 12:26:41;;;;;;;1.55;0.75;;;;;;;;;;5006402;28;20040;-63
2023/02/21 12:29:07;;;;;;;0.20;0.20;;;;;;;;;;5012944;28;20037;-61
2023/02/21 12:31:34;;;;;;;0.25;0.25;;;;;;;;;;5016657;28;20036;-64
2023/02/21 12:34:08;;;;;;;1.15;0.70;;;;;;;;;;5008133;28;20042;-63
2023/02/21 12:36:47;;;;;;;3.72;1.10;;;;;;;;;;5007598;28;20465;-62
2023/02/21 12:39:16;;;;;;;1.75;0.65;;;;;;;;;;5007376;28;20045;-64
2023/02/21 12:41:46;;;;;;;1.35;0.30;;;;;;;;;;5015012;28;20475;-64
2023/02/21 12:44:14;;;;;;;0.40;0.30;;;;;;;;;;5015795;28;20068;-64
2023/02/21 12:46:49;;;;;;;1.67;0.82;;;;;;;;;;5013049;28;20038;-62
2023/02/21 12:49:22;;;;;;;0.25;0.25;;;;;;;;;;5014563;28;20160;-64
2023/02/21 12:51:58;;;;;;;3.75;0.60;;;;;;;;;;5006479;28;20050;-63
2023/02/21 12:55:03;;;;;;;1.88;0.50;;;;;;;;;;5007665;28;20064;-64
2023/02/21 12:57:33;;;;;;;0.25;0.25;;;;;;;;;;4969595;28;20630;-65
2023/02/21 13:00:11;;;;;;;7.65;0.50;;;;;;;;;;4972127;28;20077;-63
2023/02/21 13:02:43;;;;;;;0.52;0.30;;;;;;;;;;4992090;28;20077;-63
2023/02/21 13:05:16;;;;;;;1.90;0.80;;;;;;;;;;5006616;28;20052;-63
2023/02/21 13:07:45;;;;;;;1.73;0.57;;;;;;;;;;5006902;28;20292;-63
2023/02/21 13:10:23;;;;;;;2.30;0.95;;;;;;;;;;5007054;28;20133;-62
2023/02/21 13:12:57;;;;;;;0.35;0.20;;;;;;;;;;5005661;28;20235;-62
2023/02/21 13:15:28;;;;;;;0.20;0.20;;;;;;;;;;5004434;28;20161;-62
2023/02/21 13:18:00;;;;;;;0.28;0.28;;;;;;;;;;5004987;28;20383;-64
2023/02/21 13:20:31;;;;;;;0.50;0.50;;;;;;;;;;5005901;28;20046;-61
2023/02/21 13:23:16;;;;;;;0.38;0.30;;;;;;;;;;5004867;28;20064;-62
2023/02/21 13:25:42;;;;;;;0.73;0.38;;;;;;;;;;5004332;28;20101;-61
2023/02/21 13:28:15;;;;;;;4.97;1.33;;;;;;;;;;5007132;28;20041;-62
2023/02/21 13:30:47;;;;;;;3.10;1.15;;;;;;;;;;5004019;28;20048;-62
2023/02/21 13:33:43;;;;;;;2.40;0.98;;;;;;;;;;5005433;28;20048;-62
2023/02/21 13:36:19;;;;;;;4.18;1.48;;;;;;;;;;4990176;28;20561;-65
2023/02/21 13:38:46;;;;;;;2.38;1.10;;;;;;;;;;5004801;28;20050;-62
2023/02/21 13:41:15;;;;;;;0.20;0.20;;;;;;;;;;5005805;28;20511;-63
2023/02/21 13:43:51;;;;;;;4.25;1.40;;;;;;;;;;5005617;28;20041;-63
2023/02/21 13:46:29;;;;;;;2.35;0.90;;;;;;;;;;5005625;28;20044;-63
2023/02/21 13:49:14;;;;;;;0.75;0.47;;;;;;;;;;5004796;28;20052;-63
2023/02/21 13:51:48;;;;;;;0.20;0.20;;;;;;;;;;5006293;28;20041;-63
2023/02/21 13:54:21;;;;;;;1.23;0.55;;;;;;;;;;5006757;28;20042;-62
2023/02/21 13:56:48;;;;;;;4.22;1.17;;;;;;;;;;5017119;28;20072;-63
2023/02/21 13:59:32;;;;;;;2.95;1.08;;;;;;;;;;5009162;28;20034;-64
2023/02/21 14:02:19;;;;;;;3.60;1.20;;;;;;;;;;5016748;28;20453;-60
2023/02/21 14:04:50;;;;;;;4.88;1.30;;;;;;;;;;5004748;28;20034;-62
2023/02/21 14:07:18;;;;;;;2.83;1.10;;;;;;;;;;5005162;28;20118;-62
2023/02/21 14:09:46;;;;;;;4.03;1.35;;;;;;;;;;5001763;28;20120;-62
2023/02/21 14:12:14;;;;;;;2.55;1.15;;;;;;;;;;5003087;28;20038;-61
2023/02/21 14:14:42;;;;;;;5.20;1.88;;;;;;;;;;5003245;28;20060;-61
2023/02/21 14:17:10;;;;;;;3.38;1.30;;;;;;;;;;5004294;28;20073;-62
2023/02/21 14:19:37;;;;;;;4.47;1.63;;;;;;;;;;5002730;28;20042;-62
2023/02/21 14:22:22;;;;;;;1.77;0.73;;;;;;;;;;5002115;28;20130;-62
2023/02/21 14:24:50;;;;;;;3.38;1.02;;;;;;;;;;5001245;28;20146;-62
2023/02/21 14:27:16;;;;;;;3.63;0.85;;;;;;;;;;5012388;28;20156;-62
2023/02/21 14:29:45;;;;;;;4.97;1.75;;;;;;;;;;5013577;28;20034;-63
2023/02/21 14:32:11;;;;;;;1.45;0.73;;;;;;;;;;5006010;28;20371;-63
2023/02/21 14:34:38;;;;;;;2.28;0.95;;;;;;;;;;5008281;28;20038;-64
2023/02/21 14:37:16;;;;;;;6.97;1.45;;;;;;;;;;5008880;28;20088;-62
2023/02/21 14:39:44;;;;;;;3.75;1.27;;;;;;;;;;5015367;28;20108;-64
2023/02/21 14:42:14;;;;;;;3.00;0.95;;;;;;;;;;5016695;28;20095;-62
2023/02/21 14:44:56;;;;;;;5.85;1.17;;;;;;;;;;5008060;28;20092;-61
2023/02/21 14:47:24;;;;;;;0.20;0.20;;;;;;;;;;5007121;28;20056;-62
2023/02/21 14:50:03;;;;;;;1.05;0.65;;;;;;;;;;5007361;28;20056;-62
2023/02/21 14:52:45;;;;;;;7.70;1.65;;;;;;;;;;5007047;28;20155;-63
2023/02/21 14:55:24;;;;;;;3.53;1.13;;;;;;;;;;5005229;28;20048;-64
2023/02/21 14:57:53;;;;;;;1.63;0.65;;;;;;;;;;5017075;28;20060;-63
2023/02/21 15:00:20;;;;;;;1.75;0.80;;;;;;;;;;5010495;28;20092;-64
2023/02/21 15:02:47;;;;;;;0.95;0.52;;;;;;;;;;5008323;28;20045;-63
2023/02/21 15:05:22;;;;;;;2.78;1.40;;;;;;;;;;5006730;28;20052;-67
2023/02/21 15:07:48;;;;;;;1.60;0.82;;;;;;;;;;5005654;28;20487;-64
2023/02/21 15:10:23;;;;;;;2.50;1.08;;;;;;;;;;5005492;28;20029;-65
2023/02/21 15:12:53;;;;;;;1.40;0.73;;;;;;;;;;5003314;28;20045;-64
2023/02/21 15:15:22;;;;;;;4.05;1.60;;;;;;;;;;5000022;28;20050;-65
2023/02/21 15:18:01;;;;;;;3.00;0.90;;;;;;;;;;5012555;28;20167;-66
2023/02/21 15:20:29;;;;;;;0.52;0.38;;;;;;;;;;5007162;28;20033;-63
2023/02/21 15:22:56;;;;;;;0.20;0.20;;;;;;;;;;5006668;28;20041;-64
2023/02/21 15:25:24;;;;;;;0.85;0.68;;;;;;;;;;5003979;28;20030;-65
2023/02/21 15:27:51;;;;;;;1.17;0.68;;;;;;;;;;5007333;28;20038;-65
2023/02/21 15:30:29;;;;;;;4.60;1.40;;;;;;;;;;5006189;28;20046;-64
2023/02/21 15:33:07;;;;;;;0.63;0.40;;;;;;;;;;5016993;28;20060;-65
2023/02/21 15:35:38;;;;;;;0.35;0.30;;;;;;;;;;5005974;28;20050;-62
2023/02/21 15:38:15;;;;;;;2.17;0.80;;;;;;;;;;5014518;28;20054;-65
2023/02/21 15:40:42;;;;;;;2.70;1.15;;;;;;;;;;5014063;28;20115;-65
2023/02/21 15:43:13;;;;;;;3.00;1.20;;;;;;;;;;5007169;28;20066;-68
2023/02/21 15:45:48;;;;;;;3.13;1.08;;;;;;;;;;5005852;28;20049;-64
2023/02/21 15:48:14;;;;;;;2.65;0.85;;;;;;;;;;5004685;28;20121;-63
2023/02/21 15:50:45;;;;;;;1.38;0.68;;;;;;;;;;5006017;28;20041;-64
2023/02/21 15:53:16;;;;;;;1.27;0.60;;;;;;;;;;5005131;28;20206;-65
2023/02/21 15:55:44;;;;;;;2.67;1.00;;;;;;;;;;5005610;28;20045;-64
2023/02/21 15:58:22;;;;;;;3.75;1.02;;;;;;;;;;5006418;28;20065;-64
2023/02/21 16:01:11;;;;;;;3.35;1.27;;;;;;;;;;5016800;28;20059;-65
2023/02/21 16:03:42;;;;;;;0.30;0.30;;;;;;;;;;5006822;28;20585;-65
2023/02/21 16:06:14;;;;;;;1.95;0.82;;;;;;;;;;5005499;28;20045;-64
2023/02/21 16:08:50;;;;;;;1.98;0.73;;;;;;;;;;4999174;28;20652;-65
2023/02/21 16:11:18;;;;;;;3.25;1.40;;;;;;;;;;5006643;28;20131;-64
2023/02/21 16:13:45;;;;;;;2.17;0.93;;;;;;;;;;5013640;28;20049;-64
2023/02/21 16:16:12;;;;;;;0.65;0.40;;;;;;;;;;5005874;28;20046;-65
2023/02/21 16:18:38;;;;;;;3.30;1.10;;;;;;;;;;5005706;28;20071;-64
2023/02/21 16:21:06;;;;;;;0.82;0.47;;;;;;;;;;5005559;28;20936;-65
2023/02/21 16:23:35;;;;;;;2.85;1.38;;;;;;;;;;5005304;28;20490;-66
2023/02/21 16:26:11;;;;;;;0.98;0.60;;;;;;;;;;5005223;28;20131;-64
2023/02/21 16:28:39;;;;;;;1.63;0.70;;;;;;;;;;5004999;28;20134;-66
2023/02/21 16:31:07;;;;;;;1.40;0.68;;;;;;;;;;5004745;28;20037;-64
2023/02/21 16:33:35;;;;;;;4.35;0.93;;;;;;;;;;5005271;28;20037;-67
2023/02/21 16:36:05;;;;;;;4.07;1.23;;;;;;;;;;5007092;28;20040;-63
2023/02/21 16:38:32;;;;;;;2.22;0.93;;;;;;;;;;5004847;28;20048;-66
2023/02/21 16:40:59;;;;;;;2.92;1.17;;;;;;;;;;5005233;28;20083;-64
2023/02/21 16:43:27;;;;;;;3.65;1.05;;;;;;;;;;5004040;28;20038;-65
2023/02/21 16:45:54;;;;;;;2.45;0.80;;;;;;;;;;5005580;28;20051;-63
2023/02/21 16:48:25;;;;;;;0.60;0.40;;;;;;;;;;5005170;28;20049;-63
2023/02/21 16:50:52;;;;;;;1.08;0.47;;;;;;;;;;5006344;28;20044;-64
2023/02/21 16:53:19;;;;;;;4.80;1.20;;;;;;;;;;5005286;28;20046;-64
2023/02/21 16:55:46;;;;;;;0.20;0.20;;;;;;;;;;5005116;28;20046;-64
2023/02/21 16:58:19;;;;;;;2.40;0.90;;;;;;;;;;5005520;28;20053;-63
2023/02/21 17:00:46;;;;;;;0.13;0.13;;;;;;;;;;5004321;28;20053;-65
2023/02/21 17:03:13;;;;;;;2.65;1.17;;;;;;;;;;5005295;28;20091;-64
2023/02/21 17:05:39;;;;;;;1.00;0.43;;;;;;;;;;5004758;28;20037;-64
2023/02/21 17:08:06;;;;;;;2.50;1.08;;;;;;;;;;5006756;28;20447;-64
2023/02/21 17:10:33;;;;;;;3.10;1.27;;;;;;;;;;5003707;28;20041;-65
2023/02/21 17:13:02;;;;;;;2.10;0.80;;;;;;;;;;5005034;28;20045;-68
2023/02/21 17:15:30;;;;;;;3.75;1.38;;;;;;;;;;5005232;28;20041;-64